createdAt,value
2019-02-14T00:01:06.463Z,19.37
2019-02-14T00:03:36.704Z,18.13
2019-02-14T00:06:06.493Z,18.40
2019-02-14T00:08:37.638Z,15.77
2019-02-14T00:11:07.907Z,18.73
2019-02-14T00:13:37.927Z,23.87
2019-02-14T00:16:08.259Z,50.47
2019-02-14T00:18:42.356Z,22.10
2019-02-14T00:21:14.294Z,16.50
2019-02-14T00:23:47.131Z,19.93
2019-02-14T00:26:18.088Z,20.13
2019-02-14T00:28:49.245Z,18.03
2019-02-14T00:31:24.217Z,16.50
2019-02-14T00:33:53.839Z,18.10
2019-02-14T00:36:23.841Z,22.13
2019-02-14T00:38:54.825Z,20.63
2019-02-14T00:41:25.033Z,19.63
2019-02-14T00:43:54.554Z,17.60
2019-02-14T00:46:24.017Z,16.50
2019-02-14T00:48:55.824Z,18.43
2019-02-14T00:51:25.740Z,20.40
2019-02-14T00:53:55.196Z,19.97
2019-02-14T00:56:25.477Z,19.80
2019-02-14T00:58:54.960Z,17.30
2019-02-14T01:01:24.588Z,18.50
2019-02-14T01:03:55.957Z,21.33
2019-02-14T01:06:26.621Z,18.90
2019-02-14T01:08:57.831Z,19.77
2019-02-14T01:11:29.353Z,16.90
2019-02-14T01:13:58.905Z,17.57
2019-02-14T01:16:29.637Z,19.03
2019-02-14T01:19:03.439Z,17.70
2019-02-14T01:21:32.960Z,19.30
2019-02-14T01:24:02.224Z,21.03
2019-02-14T01:26:32.499Z,17.70
2019-02-14T01:29:02.475Z,22.13
2019-02-14T01:31:32.760Z,20.97
2019-02-14T01:34:02.241Z,20.37
2019-02-14T01:36:33.867Z,25.80
2019-02-14T01:39:03.214Z,19.83
2019-02-14T01:41:32.743Z,20.23
2019-02-14T01:44:02.239Z,19.20
2019-02-14T01:46:32.468Z,20.13
2019-02-14T01:49:05.770Z,18.67
2019-02-14T01:51:39.707Z,19.03
2019-02-14T01:54:11.942Z,18.47
2019-02-14T01:56:43.203Z,17.50
2019-02-14T01:59:13.429Z,18.30
2019-02-14T02:01:43.941Z,18.57
2019-02-14T02:04:13.150Z,18.43
2019-02-14T02:06:42.891Z,18.43
2019-02-14T02:09:12.620Z,20.43
2019-02-14T02:11:42.826Z,21.63
2019-02-14T02:14:14.513Z,22.70
2019-02-14T02:16:43.782Z,18.80
2019-02-14T02:19:13.526Z,29.03
2019-02-14T02:21:42.720Z,21.23
2019-02-14T02:24:12.251Z,23.00
2019-02-14T02:26:44.219Z,20.57
2019-02-14T02:29:18.052Z,21.83
2019-02-14T02:31:47.598Z,23.03
2019-02-14T02:34:17.164Z,26.47
2019-02-14T02:36:47.386Z,22.00
2019-02-14T02:39:17.291Z,19.10
2019-02-14T02:41:48.679Z,19.00
2019-02-14T02:44:20.968Z,21.17
2019-02-14T02:46:53.712Z,21.10
2019-02-14T02:49:23.474Z,20.10
2019-02-14T02:51:54.408Z,19.50
2019-02-14T02:54:23.618Z,16.23
2019-02-14T02:56:53.176Z,19.60
2019-02-14T02:59:25.744Z,17.17
2019-02-14T03:01:55.909Z,17.77
2019-02-14T03:04:25.126Z,17.33
2019-02-14T03:06:54.593Z,19.53
2019-02-14T03:09:24.844Z,17.70
2019-02-14T03:11:56.090Z,22.03
2019-02-14T03:14:26.085Z,18.80
2019-02-14T03:16:55.701Z,20.67
2019-02-14T03:19:25.653Z,25.03
2019-02-14T03:21:55.414Z,23.13
2019-02-14T03:24:26.469Z,27.83
2019-02-14T03:26:58.890Z,26.03
2019-02-14T03:29:29.885Z,30.80
2019-02-14T03:32:04.669Z,18.53
2019-02-14T03:34:36.159Z,21.77
2019-02-14T03:37:07.121Z,20.63
2019-02-14T03:39:37.080Z,17.83
2019-02-14T03:42:06.321Z,19.53
2019-02-14T03:44:36.129Z,20.10
2019-02-14T03:47:06.177Z,18.80
2019-02-14T03:49:36.172Z,17.50
2019-02-14T03:52:12.450Z,22.07
2019-02-14T03:54:46.775Z,16.90
2019-02-14T03:57:16.019Z,19.67
2019-02-14T03:59:49.671Z,17.57
2019-02-14T04:02:22.014Z,18.57
2019-02-14T04:04:53.505Z,20.30
2019-02-14T04:07:23.396Z,17.50
2019-02-14T04:09:53.774Z,18.63
2019-02-14T04:12:23.768Z,19.63
2019-02-14T04:14:55.805Z,17.47
2019-02-14T04:17:26.941Z,18.50
2019-02-14T04:19:56.113Z,19.07
2019-02-14T04:22:25.586Z,21.63
2019-02-14T04:24:54.768Z,17.03
2019-02-14T04:27:23.972Z,21.50
2019-02-14T04:29:53.691Z,18.23
2019-02-14T04:32:23.219Z,19.97
2019-02-14T04:34:53.031Z,19.83
2019-02-14T04:37:23.053Z,18.17
2019-02-14T04:39:52.592Z,18.73
2019-02-14T04:42:27.617Z,18.00
2019-02-14T04:44:57.091Z,20.00
2019-02-14T04:47:27.076Z,16.83
2019-02-14T04:49:56.812Z,15.73
2019-02-14T04:52:26.911Z,19.20
2019-02-14T04:55:00.938Z,17.97
2019-02-14T04:57:33.124Z,18.50
2019-02-14T05:00:12.224Z,14.00
2019-02-14T05:02:42.000Z,17.33
2019-02-14T05:05:11.887Z,14.67
2019-02-14T05:07:41.592Z,16.27
2019-02-14T05:10:11.386Z,17.50
2019-02-14T05:12:42.357Z,15.73
2019-02-14T05:15:11.928Z,16.13
2019-02-14T05:17:41.576Z,17.33
2019-02-14T05:20:13.118Z,15.47
2019-02-14T05:22:44.518Z,19.63
2019-02-14T05:25:14.564Z,17.47
2019-02-14T05:27:44.255Z,18.90
2019-02-14T05:30:14.480Z,18.33
2019-02-14T05:32:51.039Z,17.73
2019-02-14T05:35:20.569Z,14.93
2019-02-14T05:37:49.971Z,15.80
2019-02-14T05:40:20.720Z,14.77
2019-02-14T05:42:50.269Z,18.03
2019-02-14T05:45:19.930Z,19.43
2019-02-14T05:47:50.602Z,14.53
2019-02-14T05:50:21.955Z,16.90
2019-02-14T05:52:51.445Z,16.30
2019-02-14T05:55:25.169Z,16.37
2019-02-14T05:57:55.025Z,16.73
2019-02-14T06:00:24.525Z,20.47
2019-02-14T06:02:54.571Z,19.70
2019-02-14T06:05:26.521Z,18.17
2019-02-14T06:07:56.309Z,18.47
2019-02-14T06:10:28.080Z,17.93
2019-02-14T06:12:59.091Z,20.90
2019-02-14T06:15:29.528Z,19.30
2019-02-14T06:18:01.061Z,19.27
2019-02-14T06:20:31.760Z,19.93
2019-02-14T06:23:02.507Z,18.30
2019-02-14T06:25:32.052Z,17.37
2019-02-14T06:28:02.305Z,24.17
2019-02-14T06:30:32.046Z,20.83
2019-02-14T06:33:02.106Z,18.47
2019-02-14T06:35:32.574Z,20.03
2019-02-14T06:38:02.572Z,23.53
2019-02-14T06:40:32.534Z,22.10
2019-02-14T06:43:04.115Z,18.33
2019-02-14T06:45:35.176Z,20.50
2019-02-14T06:48:04.661Z,19.17
2019-02-14T06:50:35.003Z,22.03
2019-02-14T06:53:07.753Z,23.23
2019-02-14T06:55:40.545Z,30.97
2019-02-14T06:58:12.827Z,21.57
2019-02-14T07:00:46.869Z,21.80
2019-02-14T07:03:17.315Z,21.60
2019-02-14T07:05:50.406Z,25.80
2019-02-14T07:08:19.603Z,20.17
2019-02-14T07:10:55.182Z,16.57
2019-02-14T07:13:24.664Z,23.47
2019-02-14T07:15:54.683Z,19.00
2019-02-14T07:18:24.056Z,22.07
2019-02-14T07:20:54.244Z,17.77
2019-02-14T07:23:26.415Z,20.03
2019-02-14T07:26:00.094Z,19.67
2019-02-14T07:28:32.233Z,18.60
2019-02-14T07:31:01.443Z,21.80
2019-02-14T07:33:30.727Z,18.97
2019-02-14T07:36:00.017Z,21.23
2019-02-14T07:38:29.230Z,22.67
2019-02-14T07:40:58.669Z,22.57
2019-02-14T07:43:28.244Z,24.23
2019-02-14T07:45:59.875Z,22.53
2019-02-14T07:48:29.368Z,18.87
2019-02-14T07:50:59.049Z,21.30
2019-02-14T07:53:28.626Z,18.97
2019-02-14T07:55:58.943Z,18.80
2019-02-14T07:58:35.606Z,19.33
2019-02-14T08:01:05.144Z,21.50
2019-02-14T08:03:34.844Z,19.17
2019-02-14T08:06:05.204Z,22.27
2019-02-14T08:08:36.838Z,23.90
2019-02-14T08:11:06.509Z,20.53
2019-02-14T08:13:37.829Z,22.90
2019-02-14T08:16:07.314Z,20.17
2019-02-14T08:18:36.583Z,21.93
2019-02-14T08:21:06.420Z,22.30
2019-02-14T08:23:36.420Z,21.93
2019-02-14T08:26:10.793Z,16.43
2019-02-14T08:28:39.253Z,21.63
2019-02-14T08:31:08.697Z,19.00
2019-02-14T08:33:38.000Z,17.20
2019-02-14T08:36:07.300Z,17.90
2019-02-14T08:38:38.371Z,19.77
2019-02-14T08:41:07.832Z,21.10
2019-02-14T08:43:37.069Z,18.50
2019-02-14T08:46:06.289Z,21.50
2019-02-14T08:48:35.474Z,17.03
2019-02-14T08:51:04.727Z,16.80
2019-02-14T08:53:34.483Z,16.97
2019-02-14T08:56:04.460Z,16.17
2019-02-14T08:58:34.243Z,14.50
2019-02-14T09:01:03.485Z,15.70
2019-02-14T09:03:32.686Z,16.90
2019-02-14T09:06:01.881Z,19.27
2019-02-14T09:08:31.805Z,20.60
2019-02-14T09:11:01.782Z,19.13
2019-02-14T09:13:31.288Z,17.80
2019-02-14T09:16:01.877Z,18.67
2019-02-14T09:18:32.020Z,19.10
2019-02-14T09:21:01.332Z,19.97
2019-02-14T09:23:30.530Z,18.17
2019-02-14T09:25:59.707Z,16.07
2019-02-14T09:28:29.195Z,16.50
2019-02-14T09:30:59.687Z,17.53
2019-02-14T09:33:28.952Z,15.40
2019-02-14T09:36:00.315Z,16.63
2019-02-14T09:38:29.532Z,15.77
2019-02-14T09:41:01.487Z,15.47
2019-02-14T09:43:32.880Z,12.50
2019-02-14T09:46:02.113Z,14.17
2019-02-14T09:48:31.317Z,13.30
2019-02-14T09:51:00.484Z,17.30
2019-02-14T09:53:30.449Z,15.77
2019-02-14T09:56:01.247Z,15.63
2019-02-14T09:58:30.913Z,36.37
2019-02-14T10:01:00.941Z,19.90
2019-02-14T10:03:32.320Z,13.33
2019-02-14T10:06:01.917Z,15.37
2019-02-14T10:08:31.281Z,13.27
2019-02-14T10:11:01.359Z,15.27
2019-02-14T10:13:36.254Z,14.20
2019-02-14T10:16:05.819Z,12.87
2019-02-14T10:18:35.136Z,14.17
2019-02-14T10:21:08.133Z,13.53
2019-02-14T10:23:38.328Z,10.87
2019-02-14T10:26:17.836Z,12.73
2019-02-14T10:28:48.039Z,13.17
2019-02-14T10:31:17.768Z,11.27
2019-02-14T10:33:47.239Z,10.90
2019-02-14T10:36:18.092Z,10.50
2019-02-14T10:38:47.963Z,9.60
2019-02-14T10:41:18.030Z,11.50
2019-02-14T10:44:00.923Z,13.23
2019-02-14T10:46:31.501Z,12.63
2019-02-14T10:49:01.515Z,12.37
2019-02-14T10:51:31.780Z,10.53
2019-02-14T10:54:02.264Z,11.83
2019-02-14T10:56:33.891Z,13.07
2019-02-14T10:59:03.951Z,9.97
2019-02-14T11:01:34.161Z,10.70
2019-02-14T11:04:03.643Z,10.77
2019-02-14T11:06:35.192Z,12.60
2019-02-14T11:09:05.870Z,10.23
2019-02-14T11:11:35.076Z,10.93
2019-02-14T11:14:04.339Z,8.93
2019-02-14T11:16:33.860Z,9.83
2019-02-14T11:19:03.031Z,15.23
2019-02-14T11:21:32.238Z,14.17
2019-02-14T11:24:12.630Z,11.07
2019-02-14T11:26:42.648Z,13.50
2019-02-14T11:29:11.813Z,12.87
2019-02-14T11:31:41.682Z,13.47
2019-02-14T11:34:11.318Z,11.13
2019-02-14T11:36:40.560Z,12.03
2019-02-14T11:39:18.538Z,11.60
2019-02-14T11:41:48.463Z,12.23
2019-02-14T11:44:17.679Z,13.20
2019-02-14T11:46:51.442Z,10.47
2019-02-14T11:49:19.644Z,13.33
2019-02-14T11:51:48.834Z,11.17
2019-02-14T11:54:18.097Z,10.70
2019-02-14T11:56:47.262Z,12.37
2019-02-14T11:59:16.808Z,11.93
2019-02-14T12:01:55.018Z,11.97
2019-02-14T12:04:17.683Z,10.03
2019-02-14T12:06:47.229Z,12.77
2019-02-14T12:09:20.491Z,12.40
2019-02-14T12:11:50.049Z,11.13
2019-02-14T12:14:19.507Z,15.37
2019-02-14T12:16:50.368Z,12.47
2019-02-14T12:19:20.092Z,9.53
2019-02-14T12:21:49.264Z,11.83
2019-02-14T12:24:18.719Z,13.73
2019-02-14T12:26:47.883Z,12.13
2019-02-14T12:29:17.123Z,9.20
2019-02-14T12:31:46.277Z,13.27
2019-02-14T12:34:15.499Z,14.73
2019-02-14T12:36:44.704Z,10.50
2019-02-14T12:39:13.903Z,14.40
2019-02-14T12:41:44.118Z,8.93
2019-02-14T12:44:13.309Z,12.93
2019-02-14T12:46:42.515Z,12.60
2019-02-14T12:49:11.696Z,12.50
2019-02-14T12:51:40.901Z,14.03
2019-02-14T12:54:10.100Z,11.37
2019-02-14T12:56:39.314Z,12.17
2019-02-14T12:59:09.411Z,11.90
2019-02-14T13:01:39.020Z,11.03
2019-02-14T13:04:09.384Z,16.03
2019-02-14T13:06:38.857Z,14.93
2019-02-14T13:09:19.482Z,14.57
2019-02-14T13:11:41.400Z,14.90
2019-02-14T13:14:11.158Z,11.73
2019-02-14T13:16:42.975Z,13.00
2019-02-14T13:19:13.247Z,15.53
2019-02-14T13:21:47.553Z,14.73
2019-02-14T13:24:21.341Z,13.77
2019-02-14T13:26:50.976Z,13.80
2019-02-14T13:29:21.014Z,15.00
2019-02-14T13:31:50.772Z,15.20
2019-02-14T13:34:20.807Z,17.07
2019-02-14T13:37:01.378Z,17.67
2019-02-14T13:39:29.714Z,16.60
2019-02-14T13:41:58.534Z,13.73
2019-02-14T13:44:29.851Z,13.40
2019-02-14T13:46:59.346Z,15.40
2019-02-14T13:49:32.983Z,15.20
2019-02-14T13:52:02.271Z,17.60
2019-02-14T13:54:31.440Z,15.33
2019-02-14T13:57:00.886Z,12.97
2019-02-14T13:59:32.393Z,14.93
2019-02-14T14:02:01.913Z,15.37
2019-02-14T14:04:32.187Z,12.97
2019-02-14T14:07:04.110Z,14.03
2019-02-14T14:09:38.784Z,15.53
2019-02-14T14:12:06.843Z,13.90
2019-02-14T14:14:40.860Z,16.37
2019-02-14T14:17:12.955Z,14.23
2019-02-14T14:19:44.389Z,18.03
2019-02-14T14:22:16.501Z,16.40
2019-02-14T14:24:49.364Z,17.43
2019-02-14T14:27:24.802Z,15.00
2019-02-14T14:29:56.476Z,20.93
2019-02-14T14:32:31.713Z,12.57
2019-02-14T14:35:05.941Z,15.53
2019-02-14T14:37:40.497Z,13.43
2019-02-14T14:40:11.190Z,13.73
2019-02-14T14:42:59.845Z,14.27
2019-02-14T14:45:47.416Z,15.27
2019-02-14T14:48:24.664Z,13.77
2019-02-14T14:50:54.799Z,14.53
2019-02-14T14:53:24.123Z,16.87
2019-02-14T14:55:54.200Z,14.90
2019-02-14T14:58:23.405Z,15.27
2019-02-14T15:00:53.099Z,16.73
2019-02-14T15:03:22.696Z,14.73
2019-02-14T15:05:57.085Z,14.10
2019-02-14T15:08:28.539Z,14.20
2019-02-14T15:10:58.886Z,16.43
2019-02-14T15:13:29.428Z,14.13
2019-02-14T15:15:59.003Z,11.67
2019-02-14T15:18:29.129Z,16.07
2019-02-14T15:20:58.758Z,13.20
2019-02-14T15:23:27.963Z,17.13
2019-02-14T15:25:57.580Z,10.80
2019-02-14T15:28:37.384Z,14.73
2019-02-14T15:31:07.608Z,13.63
2019-02-14T15:33:36.793Z,11.50
2019-02-14T15:36:06.978Z,13.63
2019-02-14T15:38:37.031Z,13.73
2019-02-14T15:41:07.553Z,11.40
2019-02-14T15:43:36.823Z,13.20
2019-02-14T15:46:08.084Z,12.27
2019-02-14T15:48:38.557Z,12.73
2019-02-14T15:51:07.797Z,12.60
2019-02-14T15:53:37.553Z,12.47
2019-02-14T15:56:09.090Z,13.30
2019-02-14T15:58:38.651Z,15.80
2019-02-14T16:01:07.846Z,12.87
2019-02-14T16:03:38.601Z,16.20
2019-02-14T16:06:08.513Z,11.47
2019-02-14T16:08:39.351Z,11.20
2019-02-14T16:11:11.773Z,15.23
2019-02-14T16:13:41.105Z,17.30
2019-02-14T16:16:10.714Z,12.17
2019-02-14T16:18:42.408Z,16.23
2019-02-14T16:21:12.171Z,17.90
2019-02-14T16:23:42.035Z,18.20
2019-02-14T16:26:12.955Z,18.30
2019-02-14T16:28:42.798Z,18.40
2019-02-14T16:31:12.933Z,16.90
2019-02-14T16:33:48.914Z,17.13
2019-02-14T16:36:20.624Z,22.97
2019-02-14T16:38:50.240Z,17.70
2019-02-14T16:41:20.279Z,14.57
2019-02-14T16:43:49.581Z,15.23
2019-02-14T16:46:19.472Z,13.40
2019-02-14T16:48:48.671Z,17.53
2019-02-14T16:51:17.839Z,15.90
2019-02-14T16:53:50.150Z,14.13
2019-02-14T16:56:19.337Z,16.83
2019-02-14T16:58:48.569Z,13.57
2019-02-14T17:01:17.993Z,13.83
2019-02-14T17:03:47.296Z,12.50
2019-02-14T17:06:19.411Z,14.50
2019-02-14T17:08:49.267Z,17.13
2019-02-14T17:11:23.594Z,14.87
2019-02-14T17:13:53.851Z,15.00
2019-02-14T17:16:23.425Z,15.90
2019-02-14T17:18:52.753Z,13.80
2019-02-14T17:21:22.504Z,14.87
2019-02-14T17:23:51.687Z,14.77
2019-02-14T17:26:21.905Z,14.50
2019-02-14T17:28:51.236Z,18.23
2019-02-14T17:31:20.482Z,19.60
2019-02-14T17:33:51.490Z,20.40
2019-02-14T17:36:20.759Z,22.77
2019-02-14T17:38:52.561Z,18.33
2019-02-14T17:41:22.187Z,19.40
2019-02-14T17:43:51.490Z,21.13
2019-02-14T17:46:20.837Z,31.10
2019-02-14T17:48:50.043Z,35.53
2019-02-14T17:51:19.827Z,27.40
2019-02-14T17:53:49.010Z,25.80
2019-02-14T17:56:21.093Z,37.07
2019-02-14T17:59:01.803Z,32.73
2019-02-14T18:01:36.404Z,30.33
2019-02-14T18:04:06.355Z,20.43
2019-02-14T18:06:35.707Z,13.83
2019-02-14T18:09:06.814Z,18.10
2019-02-14T18:11:36.828Z,17.77
2019-02-14T18:14:06.910Z,25.97
2019-02-14T18:16:36.724Z,19.47
2019-02-14T18:19:09.251Z,23.03
2019-02-14T18:21:42.982Z,17.77
2019-02-14T18:24:12.230Z,15.17
2019-02-14T18:26:42.876Z,18.77
2019-02-14T18:29:12.678Z,17.67
2019-02-14T18:31:43.747Z,19.80
2019-02-14T18:34:13.695Z,20.83
2019-02-14T18:36:42.979Z,24.13
2019-02-14T18:39:12.507Z,21.90
2019-02-14T18:41:42.260Z,43.93
2019-02-14T18:44:15.176Z,21.30
2019-02-14T18:46:55.323Z,25.33
2019-02-14T18:49:26.366Z,22.73
2019-02-14T18:51:57.634Z,21.03
2019-02-14T18:54:28.187Z,22.47
2019-02-14T18:56:57.424Z,16.77
2019-02-14T18:59:26.877Z,21.87
2019-02-14T19:01:56.076Z,17.17
2019-02-14T19:04:25.833Z,16.33
2019-02-14T19:06:57.058Z,17.80
2019-02-14T19:09:32.051Z,20.20
2019-02-14T19:12:10.134Z,22.80
2019-02-14T19:14:52.618Z,16.43
2019-02-14T19:17:23.477Z,18.47
2019-02-14T19:19:54.253Z,19.67
2019-02-14T19:22:24.048Z,19.20
2019-02-14T19:24:55.908Z,24.03
2019-02-14T19:27:28.738Z,21.30
2019-02-14T19:29:58.705Z,19.90
2019-02-14T19:32:30.425Z,23.27
2019-02-14T19:35:00.488Z,20.23
2019-02-14T19:37:34.067Z,19.13
2019-02-14T19:40:05.875Z,17.63
2019-02-14T19:42:39.024Z,17.90
2019-02-14T19:45:13.624Z,26.17
2019-02-14T19:47:49.557Z,21.83
2019-02-14T19:50:21.195Z,25.20
2019-02-14T19:52:55.445Z,45.97
2019-02-14T19:55:25.588Z,35.40
2019-02-14T19:57:59.214Z,29.57
2019-02-14T20:00:32.321Z,25.57
2019-02-14T20:03:02.428Z,23.13
2019-02-14T20:05:36.384Z,15.47
2019-02-14T20:08:05.988Z,18.37
2019-02-14T20:10:38.377Z,18.73
2019-02-14T20:13:09.989Z,145.90
2019-02-14T20:15:43.036Z,84.37
2019-02-14T20:18:12.840Z,72.33
2019-02-14T20:20:45.016Z,66.30
2019-02-14T20:23:15.065Z,30.57
2019-02-14T20:25:44.587Z,21.83
2019-02-14T20:28:13.741Z,24.20
2019-02-14T20:30:45.777Z,24.77
2019-02-14T20:33:16.892Z,24.07
2019-02-14T20:35:49.051Z,23.13
2019-02-14T20:38:20.974Z,23.63
2019-02-14T20:40:53.055Z,43.90
2019-02-14T20:43:22.513Z,25.80
2019-02-14T20:45:52.937Z,24.80
2019-02-14T20:48:22.114Z,22.33
2019-02-14T20:50:52.045Z,21.10
2019-02-14T20:53:21.262Z,21.53
2019-02-14T20:55:51.790Z,26.33
2019-02-14T20:58:21.333Z,27.60
2019-02-14T21:00:50.866Z,29.77
2019-02-14T21:03:20.289Z,32.97
2019-02-14T21:05:49.488Z,41.47
2019-02-14T21:08:19.014Z,50.73
2019-02-14T21:10:48.686Z,84.93
2019-02-14T21:13:21.154Z,177.07
2019-02-14T21:15:52.197Z,383.40
2019-02-14T21:18:21.675Z,81.27
2019-02-14T21:20:55.283Z,126.53
2019-02-14T21:23:24.497Z,110.90
2019-02-14T21:25:53.979Z,67.43
2019-02-14T21:28:25.276Z,32.70
2019-02-14T21:30:54.788Z,24.20
2019-02-14T21:33:25.535Z,19.90
2019-02-14T21:36:05.025Z,17.20
2019-02-14T21:38:37.490Z,15.13
2019-02-14T21:41:27.326Z,19.80
2019-02-14T21:43:56.579Z,19.13
2019-02-14T21:46:26.060Z,18.90
2019-02-14T21:48:56.163Z,12.73
2019-02-14T21:51:26.813Z,14.90
2019-02-14T21:54:00.968Z,18.83
2019-02-14T21:56:34.655Z,16.80
2019-02-14T21:59:08.393Z,17.57
2019-02-14T22:01:38.832Z,20.53
2019-02-14T22:04:08.701Z,17.00
2019-02-14T22:06:38.505Z,17.43
2019-02-14T22:09:09.205Z,14.33
2019-02-14T22:11:39.242Z,19.47
2019-02-14T22:14:08.744Z,17.07
2019-02-14T22:16:38.502Z,17.17
2019-02-14T22:19:12.538Z,17.80
2019-02-14T22:21:42.709Z,15.20
2019-02-14T22:24:12.961Z,15.50
2019-02-14T22:26:42.170Z,15.40
2019-02-14T22:29:11.603Z,14.17
2019-02-14T22:31:41.588Z,15.30
2019-02-14T22:34:13.355Z,22.07
2019-02-14T22:36:50.261Z,16.47
2019-02-14T22:39:19.962Z,15.27
2019-02-14T22:41:52.608Z,15.77
2019-02-14T22:44:24.923Z,19.60
2019-02-14T22:46:54.949Z,14.70
2019-02-14T22:49:24.403Z,16.63
2019-02-14T22:51:55.126Z,16.13
2019-02-14T22:54:24.585Z,20.10
2019-02-14T22:56:55.317Z,23.53
2019-02-14T22:59:25.291Z,17.70
2019-02-14T23:01:56.479Z,20.30
2019-02-14T23:04:29.709Z,18.30
2019-02-14T23:07:00.286Z,17.97
2019-02-14T23:09:29.438Z,15.27
2019-02-14T23:11:58.675Z,17.10
2019-02-14T23:14:31.246Z,20.97
2019-02-14T23:17:00.454Z,68.27
2019-02-14T23:19:34.242Z,102.93
2019-02-14T23:22:05.808Z,58.03
2019-02-14T23:24:39.732Z,36.57
2019-02-14T23:27:09.486Z,22.33
2019-02-14T23:29:38.872Z,29.07
2019-02-14T23:32:08.045Z,14.67
2019-02-14T23:34:39.539Z,14.37
2019-02-14T23:37:08.977Z,14.97
2019-02-14T23:39:38.818Z,12.83
2019-02-14T23:42:08.801Z,15.73
2019-02-14T23:44:39.062Z,13.17
2019-02-14T23:47:08.838Z,12.13
2019-02-14T23:49:38.381Z,13.13
2019-02-14T23:52:11.135Z,14.37
2019-02-14T23:54:41.576Z,12.80
2019-02-14T23:57:15.388Z,12.30
2019-02-14T23:59:45.972Z,15.70
